createdAt,value
2019-04-23T00:04:05.868Z,100.00
2019-04-23T00:06:43.286Z,100.00
2019-04-23T00:09:17.758Z,100.00
2019-04-23T00:11:49.524Z,100.00
2019-04-23T00:14:24.013Z,100.00
2019-04-23T00:16:49.262Z,100.00
2019-04-23T00:19:27.724Z,100.00
2019-04-23T00:22:07.314Z,100.00
2019-04-23T00:25:28.969Z,100.00
2019-04-23T00:30:13.104Z,100.00
2019-04-23T00:32:44.660Z,100.00
2019-04-23T00:35:24.171Z,100.00
2019-04-23T00:37:49.545Z,100.00
2019-04-23T00:40:25.871Z,100.00
2019-04-23T00:43:00.644Z,100.00
2019-04-23T00:45:34.679Z,100.00
2019-04-23T00:48:10.802Z,100.00
2019-04-23T00:50:44.719Z,100.00
2019-04-23T00:53:10.927Z,100.00
2019-04-23T00:58:22.382Z,100.00
2019-04-23T01:03:23.634Z,100.00
2019-04-23T01:05:52.213Z,100.00
2019-04-23T01:08:30.206Z,100.00
2019-04-23T01:11:27.555Z,100.00
2019-04-23T01:14:06.671Z,100.00
2019-04-23T01:16:32.976Z,100.00
2019-04-23T01:19:48.409Z,100.00
2019-04-23T01:21:45.304Z,100.00
2019-04-23T01:24:34.353Z,100.00
2019-04-23T01:37:43.117Z,100.00
2019-04-23T01:40:27.225Z,100.00
2019-04-23T01:47:58.330Z,100.00
2019-04-23T01:50:29.171Z,100.00
2019-04-23T01:53:12.281Z,100.00
2019-04-23T01:55:36.761Z,100.00
2019-04-23T02:00:40.994Z,100.00
2019-04-23T02:03:16.610Z,100.00
2019-04-23T02:05:51.578Z,100.00
2019-04-23T02:08:21.001Z,100.00
2019-04-23T02:13:32.307Z,100.00
2019-04-23T02:15:59.864Z,100.00
2019-04-23T02:21:10.527Z,100.00
2019-04-23T02:26:32.120Z,100.00
2019-04-23T02:29:03.752Z,100.00
2019-04-23T02:31:57.464Z,100.00
2019-04-23T02:36:51.091Z,100.00
2019-04-23T02:39:11.596Z,100.00
2019-04-23T02:47:12.587Z,100.00
2019-04-23T02:49:35.907Z,100.00
2019-04-23T02:54:46.431Z,100.00
2019-04-23T02:57:05.775Z,100.00
2019-04-23T03:07:36.712Z,100.00
2019-04-23T03:10:00.535Z,100.00
2019-04-23T03:12:54.067Z,100.00
2019-04-23T03:15:32.954Z,100.00
2019-04-23T03:18:35.256Z,100.00
2019-04-23T03:23:42.291Z,100.00
2019-04-23T03:26:13.747Z,100.00
2019-04-23T03:32:45.288Z,100.00
2019-04-23T03:41:29.530Z,100.00
2019-04-23T03:46:43.671Z,100.00
2019-04-23T03:49:09.622Z,100.00
2019-04-23T03:51:42.886Z,100.00
2019-04-23T03:59:30.046Z,100.00
2019-04-23T04:02:20.609Z,100.00
2019-04-23T04:07:09.807Z,100.00
2019-04-23T04:09:44.869Z,100.00
2019-04-23T04:12:17.341Z,100.00
2019-04-23T04:17:14.365Z,100.00
2019-04-23T04:19:52.777Z,100.00
2019-04-23T04:22:28.498Z,100.00
2019-04-23T04:25:01.682Z,100.00
2019-04-23T04:32:31.590Z,100.00
2019-04-23T04:40:29.469Z,100.00
2019-04-23T04:42:44.258Z,100.00
2019-04-23T04:47:44.850Z,100.00
2019-04-23T04:50:19.234Z,100.00
2019-04-23T04:55:32.096Z,100.00
2019-04-23T04:57:58.635Z,100.00
2019-04-23T05:00:44.144Z,100.00
2019-04-23T05:03:22.224Z,100.00
2019-04-23T05:10:55.731Z,100.00
2019-04-23T05:15:53.898Z,100.00
2019-04-23T05:18:41.844Z,100.00
2019-04-23T05:21:20.243Z,100.00
2019-04-23T05:26:25.214Z,100.00
2019-04-23T05:29:06.424Z,100.00
2019-04-23T05:31:23.652Z,100.00
2019-04-23T05:34:02.562Z,100.00
2019-04-23T05:39:12.293Z,100.00
2019-04-23T05:41:36.871Z,100.00
2019-04-23T05:44:15.473Z,100.00
2019-04-23T05:49:22.710Z,100.00
2019-04-23T05:54:29.910Z,100.00
2019-04-23T05:56:54.223Z,100.00
2019-04-23T05:59:41.909Z,100.00
2019-04-23T06:04:35.771Z,100.00
2019-04-23T06:09:41.489Z,100.00
2019-04-23T06:17:21.349Z,100.00
2019-04-23T06:20:01.160Z,100.00
2019-04-23T06:22:49.291Z,100.00
2019-04-23T06:24:57.916Z,100.00
2019-04-23T06:27:32.050Z,100.00
2019-04-23T06:30:00.856Z,100.00
2019-04-23T06:32:37.993Z,100.00
2019-04-23T06:35:11.862Z,100.00
2019-04-23T06:38:13.610Z,100.00
2019-04-23T06:40:21.617Z,100.00
2019-04-23T06:43:11.579Z,100.00
2019-04-23T06:46:02.849Z,100.00
2019-04-23T06:48:25.743Z,100.00
2019-04-23T06:50:58.164Z,100.00
2019-04-23T06:53:19.483Z,100.00
2019-04-23T06:55:57.757Z,100.00
2019-04-23T06:58:32.776Z,100.00
2019-04-23T07:04:41.093Z,100.00
2019-04-23T07:07:31.381Z,100.00
2019-04-23T07:09:38.980Z,100.00
2019-04-23T07:12:17.553Z,100.00
2019-04-23T07:14:51.436Z,100.00
2019-04-23T07:17:13.327Z,100.00
2019-04-23T07:19:56.698Z,100.00
2019-04-23T07:22:26.368Z,100.00
2019-04-23T07:25:00.420Z,100.00
2019-04-23T07:27:36.034Z,100.00
2019-04-23T07:30:08.699Z,100.00
2019-04-23T07:32:35.762Z,100.00
2019-04-23T07:35:25.856Z,100.00
2019-04-23T07:37:50.186Z,100.00
2019-04-23T07:40:27.009Z,97.14
2019-04-23T07:43:11.589Z,91.45
2019-04-23T07:45:51.947Z,67.33
2019-04-23T07:48:24.288Z,62.11
2019-04-23T07:51:00.509Z,61.91
2019-04-23T07:53:35.106Z,61.59
2019-04-23T07:56:11.615Z,59.87
2019-04-23T07:58:33.238Z,58.95
2019-04-23T08:01:09.559Z,57.85
2019-04-23T08:03:45.081Z,58.78
2019-04-23T08:06:13.241Z,58.44
2019-04-23T08:08:54.597Z,59.50
2019-04-23T08:18:57.594Z,57.41
2019-04-23T08:21:30.655Z,56.41
2019-04-23T08:24:38.474Z,57.56
2019-04-23T08:27:18.188Z,59.34
2019-04-23T08:29:43.956Z,57.00
2019-04-23T08:35:10.588Z,56.91
2019-04-23T08:37:35.592Z,58.68
2019-04-23T08:42:46.276Z,56.62
2019-04-23T08:45:38.483Z,56.05
2019-04-23T08:48:30.797Z,57.11
2019-04-23T08:50:47.766Z,55.88
2019-04-23T08:58:31.987Z,55.76
2019-04-23T09:01:05.496Z,55.39
2019-04-23T09:03:34.819Z,55.53
2019-04-23T09:06:10.664Z,55.48
2019-04-23T09:08:47.958Z,55.66
2019-04-23T09:13:59.489Z,55.13
2019-04-23T09:16:44.375Z,54.31
2019-04-23T09:19:02.813Z,55.19
2019-04-23T09:21:33.233Z,55.19
2019-04-23T09:24:03.733Z,55.46
2019-04-23T09:26:33.100Z,55.92
2019-04-23T09:29:12.033Z,55.74
2019-04-23T09:32:22.473Z,57.11
2019-04-23T09:38:21.068Z,54.77
2019-04-23T09:41:06.933Z,55.08
2019-04-23T09:43:34.662Z,54.39
2019-04-23T09:46:25.712Z,54.77
2019-04-23T09:49:01.125Z,55.46
2019-04-23T09:51:32.849Z,54.52
2019-04-23T09:54:02.938Z,54.47
2019-04-23T09:56:37.649Z,54.86
2019-04-23T09:59:15.705Z,54.66
2019-04-23T10:01:29.338Z,55.16
2019-04-23T10:04:00.340Z,55.42
2019-04-23T10:06:25.017Z,56.02
2019-04-23T10:08:56.234Z,56.84
2019-04-23T10:11:26.173Z,56.89
2019-04-23T10:13:58.820Z,55.82
2019-04-23T10:16:34.040Z,56.71
2019-04-23T10:19:03.821Z,57.16
2019-04-23T10:21:35.357Z,56.65
2019-04-23T10:24:07.491Z,57.33
2019-04-23T10:26:39.956Z,58.34
2019-04-23T10:29:16.178Z,57.38
2019-04-23T10:31:47.394Z,57.31
2019-04-23T10:34:19.057Z,57.92
2019-04-23T10:36:51.600Z,58.64
2019-04-23T10:39:29.028Z,59.33
2019-04-23T10:41:57.569Z,58.19
2019-04-23T10:44:55.420Z,58.37
2019-04-23T10:51:29.081Z,57.82
2019-04-23T10:54:17.834Z,58.36
2019-04-23T10:56:42.526Z,60.04
2019-04-23T10:59:28.701Z,60.18
2019-04-23T11:02:29.611Z,61.30
2019-04-23T11:07:32.451Z,68.72
2019-04-23T11:20:29.961Z,71.93
2019-04-23T11:22:59.127Z,72.27
2019-04-23T11:25:33.035Z,71.88
2019-04-23T11:28:10.207Z,72.11
2019-04-23T11:33:15.220Z,72.14
2019-04-23T11:38:43.851Z,72.50
2019-04-23T11:40:41.727Z,72.98
2019-04-23T11:43:34.261Z,73.16
2019-04-23T11:46:06.350Z,73.88
2019-04-23T11:53:54.376Z,73.72
2019-04-23T11:56:19.312Z,74.11
2019-04-23T11:58:42.950Z,73.87
2019-04-23T12:04:28.837Z,74.86
2019-04-23T12:07:28.144Z,75.83
2019-04-23T12:10:20.027Z,74.92
2019-04-23T12:12:33.036Z,74.78
2019-04-23T12:15:13.592Z,75.12
2019-04-23T12:20:21.308Z,74.93
2019-04-23T12:23:08.844Z,74.08
2019-04-23T12:27:46.998Z,73.70
2019-04-23T12:30:39.652Z,73.48
2019-04-23T12:33:10.690Z,74.09
2019-04-23T12:35:35.183Z,73.44
2019-04-23T12:38:27.784Z,74.20
2019-04-23T12:40:45.786Z,73.89
2019-04-23T12:43:20.661Z,74.12
2019-04-23T12:51:19.917Z,75.17
2019-04-23T12:53:45.542Z,75.05
2019-04-23T12:56:05.087Z,76.18
2019-04-23T12:58:29.388Z,75.91
2019-04-23T13:01:16.364Z,77.38
2019-04-23T13:03:41.579Z,77.57
2019-04-23T13:06:16.948Z,77.78
2019-04-23T13:11:33.347Z,79.03
2019-04-23T13:13:58.825Z,79.03
2019-04-23T13:16:39.780Z,78.80
2019-04-23T13:19:06.416Z,78.07
2019-04-23T13:21:53.571Z,77.38
2019-04-23T13:24:27.551Z,76.44
2019-04-23T13:27:01.232Z,76.60
2019-04-23T13:32:17.116Z,75.88
2019-04-23T13:34:48.555Z,76.58
2019-04-23T13:37:19.092Z,76.65
2019-04-23T13:39:44.055Z,76.42
2019-04-23T13:42:34.009Z,76.43
2019-04-23T13:44:55.927Z,77.19
2019-04-23T13:47:43.443Z,76.34
2019-04-23T13:50:10.020Z,76.78
2019-04-23T13:52:59.311Z,76.78
2019-04-23T14:00:19.155Z,76.65
2019-04-23T14:02:43.407Z,76.52
2019-04-23T14:05:38.692Z,75.66
2019-04-23T14:08:11.834Z,75.01
2019-04-23T14:10:40.049Z,75.29
2019-04-23T14:20:59.033Z,75.84
2019-04-23T14:23:41.275Z,75.36
2019-04-23T14:26:18.597Z,75.30
2019-04-23T14:28:43.627Z,75.70
2019-04-23T14:36:15.726Z,75.49
2019-04-23T14:38:49.577Z,74.96
2019-04-23T14:44:03.656Z,74.92
2019-04-23T14:46:43.050Z,74.88
2019-04-23T14:49:03.920Z,73.58
2019-04-23T14:51:37.501Z,74.25
2019-04-23T14:54:04.835Z,73.34
2019-04-23T14:56:44.987Z,73.15
2019-04-23T14:59:12.138Z,73.27
2019-04-23T15:01:49.095Z,72.31
2019-04-23T15:04:28.857Z,71.90
2019-04-23T15:07:06.031Z,71.49
2019-04-23T15:09:36.751Z,71.61
2019-04-23T15:12:11.500Z,71.65
2019-04-23T15:14:46.542Z,72.46
2019-04-23T15:17:15.775Z,70.59
2019-04-23T15:19:53.060Z,70.15
2019-04-23T15:22:23.247Z,69.87
2019-04-23T15:25:06.246Z,69.57
2019-04-23T15:28:03.865Z,70.08
2019-04-23T15:29:52.587Z,71.03
2019-04-23T15:32:43.898Z,70.51
2019-04-23T15:35:23.787Z,70.91
2019-04-23T15:37:59.158Z,71.19
2019-04-23T15:40:15.378Z,71.34
2019-04-23T15:42:58.301Z,71.45
2019-04-23T15:47:58.361Z,71.43
2019-04-23T15:50:27.192Z,71.99
2019-04-23T15:53:03.200Z,72.61
2019-04-23T15:55:34.892Z,72.87
2019-04-23T16:00:38.759Z,73.02
2019-04-23T16:02:44.442Z,73.69
2019-04-23T16:05:18.449Z,74.52
2019-04-23T16:08:07.492Z,75.33
2019-04-23T16:10:54.561Z,74.27
2019-04-23T16:13:32.414Z,74.71
2019-04-23T16:16:02.579Z,75.63
2019-04-23T16:21:27.376Z,76.39
2019-04-23T16:23:50.308Z,76.82
2019-04-23T16:26:27.285Z,77.15
2019-04-23T16:29:23.398Z,78.12
2019-04-23T16:31:26.488Z,78.21
2019-04-23T16:34:29.102Z,78.87
2019-04-23T16:36:57.639Z,78.94
2019-04-23T16:39:37.772Z,79.34
2019-04-23T16:42:03.904Z,79.50
2019-04-23T16:44:38.276Z,80.15
2019-04-23T16:47:10.589Z,80.79
2019-04-23T16:49:33.020Z,80.30
2019-04-23T16:52:07.780Z,80.94
2019-04-23T16:54:51.790Z,81.22
2019-04-23T16:57:37.499Z,81.82
2019-04-23T17:00:03.041Z,82.19
2019-04-23T17:02:19.345Z,82.50
2019-04-23T17:04:55.075Z,82.81
2019-04-23T17:07:22.198Z,82.79
2019-04-23T17:12:19.989Z,83.98
2019-04-23T17:15:07.156Z,84.74
2019-04-23T17:17:40.876Z,84.97
2019-04-23T17:20:20.081Z,85.98
2019-04-23T17:22:39.187Z,86.74
2019-04-23T17:25:32.565Z,87.26
2019-04-23T17:27:54.488Z,87.73
2019-04-23T17:30:28.589Z,88.48
2019-04-23T17:33:13.578Z,88.87
2019-04-23T17:35:55.578Z,89.15
2019-04-23T17:38:38.967Z,89.75
2019-04-23T17:41:15.749Z,90.32
2019-04-23T17:43:39.888Z,90.94
2019-04-23T17:46:14.843Z,91.35
2019-04-23T17:48:52.124Z,92.15
2019-04-23T17:51:21.027Z,93.09
2019-04-23T17:54:04.729Z,93.52
2019-04-23T17:56:35.882Z,94.32
2019-04-23T17:59:13.256Z,95.32
2019-04-23T18:01:35.784Z,95.58
2019-04-23T18:06:51.065Z,96.98
2019-04-23T18:12:01.066Z,97.26
2019-04-23T18:14:18.179Z,97.31
2019-04-23T18:19:30.291Z,97.61
2019-04-23T18:25:06.202Z,99.09
2019-04-23T18:27:50.860Z,99.99
2019-04-23T18:30:35.205Z,100.00
2019-04-23T18:35:37.780Z,100.00
2019-04-23T18:41:02.512Z,100.00
2019-04-23T18:46:04.299Z,100.00
2019-04-23T18:48:43.878Z,100.00
2019-04-23T18:51:03.541Z,100.00
2019-04-23T18:56:15.310Z,100.00
2019-04-23T19:01:22.960Z,100.00
2019-04-23T19:04:51.039Z,100.00
2019-04-23T19:06:44.150Z,100.00
2019-04-23T19:15:28.593Z,100.00
2019-04-23T19:17:50.479Z,100.00
2019-04-23T19:20:38.258Z,100.00
2019-04-23T19:23:03.136Z,100.00
2019-04-23T19:25:28.290Z,100.00
2019-04-23T19:28:23.930Z,100.00
2019-04-23T19:31:03.259Z,100.00
2019-04-23T19:38:44.139Z,100.00
2019-04-23T19:41:19.185Z,100.00
2019-04-23T19:46:31.665Z,100.00
2019-04-23T19:49:05.430Z,100.00
2019-04-23T19:51:33.746Z,100.00
2019-04-23T19:56:45.297Z,100.00
2019-04-23T19:59:15.323Z,100.00
2019-04-23T20:01:48.217Z,100.00
2019-04-23T20:04:18.256Z,100.00
2019-04-23T20:09:40.030Z,100.00
2019-04-23T20:11:54.881Z,100.00
2019-04-23T20:14:32.357Z,100.00
2019-04-23T20:17:23.442Z,100.00
2019-04-23T20:19:45.317Z,100.00
2019-04-23T20:22:16.356Z,100.00
2019-04-23T20:30:29.173Z,100.00
2019-04-23T20:33:20.994Z,100.00
2019-04-23T20:35:16.479Z,100.00
2019-04-23T20:38:17.261Z,100.00
2019-04-23T20:40:32.519Z,100.00
2019-04-23T20:45:39.592Z,100.00
2019-04-23T20:48:12.771Z,100.00
2019-04-23T20:50:38.998Z,100.00
2019-04-23T20:53:13.490Z,100.00
2019-04-23T20:56:05.504Z,100.00
2019-04-23T20:58:52.138Z,100.00
2019-04-23T21:01:22.327Z,100.00
2019-04-23T21:06:28.371Z,100.00
2019-04-23T21:09:23.645Z,100.00
2019-04-23T21:11:40.398Z,100.00
2019-04-23T21:14:22.616Z,100.00
2019-04-23T21:16:41.286Z,100.00
2019-04-23T21:19:11.831Z,100.00
2019-04-23T21:22:11.296Z,100.00
2019-04-23T21:24:42.323Z,100.00
2019-04-23T21:27:21.829Z,100.00
2019-04-23T21:29:56.123Z,100.00
2019-04-23T21:32:24.964Z,100.00
2019-04-23T21:35:05.296Z,100.00
2019-04-23T21:37:54.236Z,100.00
2019-04-23T21:44:05.438Z,100.00
2019-04-23T21:46:23.340Z,100.00
2019-04-23T21:51:39.244Z,100.00
2019-04-23T21:56:32.417Z,100.00
2019-04-23T22:04:17.736Z,100.00
2019-04-23T22:06:54.148Z,100.00
2019-04-23T22:17:10.030Z,100.00
2019-04-23T22:19:45.573Z,100.00
2019-04-23T22:21:59.080Z,100.00
2019-04-23T22:24:33.192Z,100.00
2019-04-23T22:27:02.767Z,100.00
2019-04-23T22:29:39.149Z,100.00
2019-04-23T22:32:15.090Z,100.00
2019-04-23T22:34:51.857Z,100.00
2019-04-23T22:37:22.052Z,100.00
2019-04-23T22:39:52.408Z,100.00
2019-04-23T22:42:41.202Z,100.00
2019-04-23T22:45:07.129Z,100.00
2019-04-23T22:49:07.994Z,100.00
2019-04-23T22:51:43.779Z,100.00
2019-04-23T22:54:06.567Z,100.00
2019-04-23T22:56:44.037Z,100.00
2019-04-23T22:59:18.494Z,100.00
2019-04-23T23:04:23.690Z,100.00
2019-04-23T23:07:01.183Z,100.00
2019-04-23T23:09:25.374Z,100.00
2019-04-23T23:12:02.303Z,100.00
2019-04-23T23:14:35.398Z,100.00
2019-04-23T23:17:03.492Z,100.00
2019-04-23T23:24:46.016Z,100.00
2019-04-23T23:27:21.421Z,100.00
2019-04-23T23:29:58.144Z,100.00
2019-04-23T23:32:23.269Z,100.00
2019-04-23T23:35:09.664Z,100.00
2019-04-23T23:37:29.980Z,100.00
2019-04-23T23:40:15.097Z,100.00
2019-04-23T23:42:37.069Z,100.00
2019-04-23T23:45:21.593Z,100.00
2019-04-23T23:47:56.560Z,100.00
2019-04-23T23:50:22.723Z,100.00
2019-04-23T23:52:55.162Z,100.00
2019-04-23T23:55:25.033Z,100.00
2019-04-23T23:57:56.906Z,100.00
